sensor_id;sensor_type;location;lat;lon;timestamp;P1;durP1;ratioP1;P2;durP2;ratioP2
62071;SDS011;48031;48.542;13.232;2023-06-22T00:00:28;6.72;;;2.70;;
62071;SDS011;48031;48.542;13.232;2023-06-22T00:04:30;4.45;;;2.58;;
62071;SDS011;48031;48.542;13.232;2023-06-22T00:08:32;7.03;;;3.00;;
62071;SDS011;48031;48.542;13.232;2023-06-22T00:12:34;5.32;;;2.67;;
62071;SDS011;48031;48.542;13.232;2023-06-22T00:16:35;6.03;;;2.88;;
62071;SDS011;48031;48.542;13.232;2023-06-22T00:20:37;5.32;;;2.85;;
62071;SDS011;48031;48.542;13.232;2023-06-22T00:24:39;3.97;;;2.78;;
62071;SDS011;48031;48.542;13.232;2023-06-22T00:28:41;7.25;;;2.97;;
62071;SDS011;48031;48.542;13.232;2023-06-22T00:32:43;3.05;;;2.50;;
62071;SDS011;48031;48.542;13.232;2023-06-22T00:36:47;10.50;;;2.85;;
62071;SDS011;48031;48.542;13.232;2023-06-22T00:40:49;6.47;;;2.83;;
62071;SDS011;48031;48.542;13.232;2023-06-22T00:44:51;4.18;;;2.20;;
62071;SDS011;48031;48.542;13.232;2023-06-22T00:48:53;5.13;;;2.70;;
62071;SDS011;48031;48.542;13.232;2023-06-22T00:52:57;4.20;;;2.10;;
62071;SDS011;48031;48.542;13.232;2023-06-22T00:57:00;4.80;;;2.40;;
62071;SDS011;48031;48.542;13.232;2023-06-22T01:01:02;5.20;;;2.30;;
62071;SDS011;48031;48.542;13.232;2023-06-22T01:05:04;6.97;;;2.60;;
62071;SDS011;48031;48.542;13.232;2023-06-22T01:09:15;5.15;;;2.58;;
62071;SDS011;48031;48.542;13.232;2023-06-22T01:18:00;3.63;;;2.75;;
62071;SDS011;48031;48.542;13.232;2023-06-22T01:22:06;4.00;;;2.53;;
62071;SDS011;48031;48.542;13.232;2023-06-22T01:26:18;5.50;;;2.35;;
62071;SDS011;48031;48.542;13.232;2023-06-22T01:30:23;8.30;;;2.88;;
62071;SDS011;48031;48.542;13.232;2023-06-22T01:34:28;6.50;;;2.75;;
62071;SDS011;48031;48.542;13.232;2023-06-22T01:38:32;6.07;;;2.90;;
62071;SDS011;48031;48.542;13.232;2023-06-22T01:42:35;9.73;;;2.55;;
62071;SDS011;48031;48.542;13.232;2023-06-22T01:46:38;6.22;;;2.75;;
62071;SDS011;48031;48.542;13.232;2023-06-22T01:50:41;4.95;;;2.90;;
62071;SDS011;48031;48.542;13.232;2023-06-22T01:54:45;5.32;;;2.90;;
62071;SDS011;48031;48.542;13.232;2023-06-22T01:58:51;5.32;;;3.05;;
62071;SDS011;48031;48.542;13.232;2023-06-22T02:03:23;7.32;;;4.18;;
62071;SDS011;48031;48.542;13.232;2023-06-22T02:07:32;4.72;;;3.03;;
62071;SDS011;48031;48.542;13.232;2023-06-22T02:11:38;6.75;;;3.05;;
62071;SDS011;48031;48.542;13.232;2023-06-22T02:15:44;6.28;;;2.80;;
62071;SDS011;48031;48.542;13.232;2023-06-22T02:19:47;7.78;;;2.72;;
62071;SDS011;48031;48.542;13.232;2023-06-22T02:23:49;4.97;;;2.70;;
62071;SDS011;48031;48.542;13.232;2023-06-22T02:27:50;4.28;;;2.60;;
62071;SDS011;48031;48.542;13.232;2023-06-22T02:31:53;8.50;;;3.10;;
62071;SDS011;48031;48.542;13.232;2023-06-22T02:35:55;4.88;;;2.70;;
62071;SDS011;48031;48.542;13.232;2023-06-22T02:39:57;3.70;;;2.70;;
62071;SDS011;48031;48.542;13.232;2023-06-22T02:43:58;5.85;;;3.13;;
62071;SDS011;48031;48.542;13.232;2023-06-22T02:48:00;10.80;;;3.80;;
62071;SDS011;48031;48.542;13.232;2023-06-22T02:52:02;6.95;;;3.50;;
62071;SDS011;48031;48.542;13.232;2023-06-22T02:56:04;10.40;;;3.28;;
62071;SDS011;48031;48.542;13.232;2023-06-22T03:00:10;8.73;;;3.05;;
62071;SDS011;48031;48.542;13.232;2023-06-22T03:04:20;5.07;;;3.08;;
62071;SDS011;48031;48.542;13.232;2023-06-22T03:08:22;6.45;;;3.28;;
62071;SDS011;48031;48.542;13.232;2023-06-22T03:12:24;5.43;;;2.80;;
62071;SDS011;48031;48.542;13.232;2023-06-22T03:16:28;6.05;;;3.25;;
62071;SDS011;48031;48.542;13.232;2023-06-22T03:20:31;6.32;;;3.22;;
62071;SDS011;48031;48.542;13.232;2023-06-22T03:24:35;5.03;;;3.17;;
62071;SDS011;48031;48.542;13.232;2023-06-22T03:28:38;9.55;;;4.20;;
62071;SDS011;48031;48.542;13.232;2023-06-22T03:32:42;5.90;;;3.13;;
62071;SDS011;48031;48.542;13.232;2023-06-22T03:36:45;6.93;;;3.10;;
62071;SDS011;48031;48.542;13.232;2023-06-22T03:40:47;6.68;;;2.92;;
62071;SDS011;48031;48.542;13.232;2023-06-22T03:44:49;6.20;;;2.70;;
62071;SDS011;48031;48.542;13.232;2023-06-22T03:48:50;5.75;;;2.50;;
62071;SDS011;48031;48.542;13.232;2023-06-22T03:52:52;4.00;;;2.38;;
62071;SDS011;48031;48.542;13.232;2023-06-22T03:56:54;5.00;;;2.40;;
62071;SDS011;48031;48.542;13.232;2023-06-22T04:00:56;6.05;;;2.33;;
62071;SDS011;48031;48.542;13.232;2023-06-22T04:04:58;4.35;;;2.50;;
62071;SDS011;48031;48.542;13.232;2023-06-22T04:09:02;3.08;;;2.30;;
62071;SDS011;48031;48.542;13.232;2023-06-22T04:13:04;3.90;;;2.28;;
62071;SDS011;48031;48.542;13.232;2023-06-22T04:17:06;3.92;;;2.50;;
62071;SDS011;48031;48.542;13.232;2023-06-22T04:21:08;5.22;;;2.33;;
62071;SDS011;48031;48.542;13.232;2023-06-22T04:25:11;7.30;;;2.80;;
62071;SDS011;48031;48.542;13.232;2023-06-22T04:29:13;5.22;;;2.60;;
62071;SDS011;48031;48.542;13.232;2023-06-22T04:33:15;4.85;;;2.50;;
62071;SDS011;48031;48.542;13.232;2023-06-22T04:37:17;6.70;;;2.70;;
62071;SDS011;48031;48.542;13.232;2023-06-22T04:41:19;3.85;;;2.60;;
62071;SDS011;48031;48.542;13.232;2023-06-22T04:45:25;7.50;;;2.60;;
62071;SDS011;48031;48.542;13.232;2023-06-22T04:49:27;4.60;;;2.72;;
62071;SDS011;48031;48.542;13.232;2023-06-22T04:53:37;3.15;;;2.67;;
62071;SDS011;48031;48.542;13.232;2023-06-22T04:57:42;7.43;;;3.45;;
62071;SDS011;48031;48.542;13.232;2023-06-22T05:01:46;5.13;;;3.10;;
62071;SDS011;48031;48.542;13.232;2023-06-22T05:05:47;5.53;;;3.50;;
62071;SDS011;48031;48.542;13.232;2023-06-22T05:09:49;4.38;;;2.90;;
62071;SDS011;48031;48.542;13.232;2023-06-22T05:13:51;8.05;;;3.20;;
62071;SDS011;48031;48.542;13.232;2023-06-22T05:17:53;5.63;;;3.17;;
62071;SDS011;48031;48.542;13.232;2023-06-22T05:21:55;6.15;;;3.40;;
62071;SDS011;48031;48.542;13.232;2023-06-22T05:25:57;3.47;;;2.90;;
62071;SDS011;48031;48.542;13.232;2023-06-22T05:29:59;5.50;;;3.10;;
62071;SDS011;48031;48.542;13.232;2023-06-22T05:34:01;3.97;;;3.13;;
62071;SDS011;48031;48.542;13.232;2023-06-22T05:38:03;6.10;;;2.92;;
62071;SDS011;48031;48.542;13.232;2023-06-22T05:42:05;4.57;;;3.00;;
62071;SDS011;48031;48.542;13.232;2023-06-22T05:46:11;4.97;;;3.13;;
62071;SDS011;48031;48.542;13.232;2023-06-22T05:50:13;4.97;;;3.05;;
62071;SDS011;48031;48.542;13.232;2023-06-22T05:54:14;8.43;;;2.90;;
62071;SDS011;48031;48.542;13.232;2023-06-22T05:58:19;3.72;;;2.60;;
62071;SDS011;48031;48.542;13.232;2023-06-22T06:02:21;3.65;;;2.40;;
62071;SDS011;48031;48.542;13.232;2023-06-22T06:06:23;3.88;;;2.58;;
62071;SDS011;48031;48.542;13.232;2023-06-22T06:10:30;5.35;;;2.88;;
62071;SDS011;48031;48.542;13.232;2023-06-22T06:14:34;5.55;;;3.03;;
62071;SDS011;48031;48.542;13.232;2023-06-22T06:18:35;4.43;;;2.50;;
62071;SDS011;48031;48.542;13.232;2023-06-22T06:22:38;4.03;;;2.17;;
62071;SDS011;48031;48.542;13.232;2023-06-22T06:26:41;4.07;;;2.58;;
62071;SDS011;48031;48.542;13.232;2023-06-22T06:30:44;4.18;;;2.70;;
62071;SDS011;48031;48.542;13.232;2023-06-22T06:34:47;4.55;;;2.88;;
62071;SDS011;48031;48.542;13.232;2023-06-22T06:38:49;3.72;;;2.67;;
62071;SDS011;48031;48.542;13.232;2023-06-22T06:42:51;4.75;;;2.88;;
62071;SDS011;48031;48.542;13.232;2023-06-22T06:46:53;5.75;;;3.20;;
62071;SDS011;48031;48.542;13.232;2023-06-22T06:50:55;4.07;;;2.47;;
62071;SDS011;48031;48.542;13.232;2023-06-22T06:54:57;4.47;;;3.20;;
62071;SDS011;48031;48.542;13.232;2023-06-22T06:58:59;5.13;;;2.83;;
62071;SDS011;48031;48.542;13.232;2023-06-22T07:03:01;5.28;;;2.83;;
62071;SDS011;48031;48.542;13.232;2023-06-22T07:07:03;6.13;;;3.05;;
62071;SDS011;48031;48.542;13.232;2023-06-22T07:11:05;4.05;;;2.70;;
62071;SDS011;48031;48.542;13.232;2023-06-22T07:15:08;6.70;;;2.83;;
62071;SDS011;48031;48.542;13.232;2023-06-22T07:19:11;4.93;;;2.72;;
62071;SDS011;48031;48.542;13.232;2023-06-22T07:23:13;4.15;;;2.97;;
62071;SDS011;48031;48.542;13.232;2023-06-22T07:27:15;5.18;;;2.80;;
62071;SDS011;48031;48.542;13.232;2023-06-22T07:31:20;4.00;;;2.60;;
62071;SDS011;48031;48.542;13.232;2023-06-22T07:35:22;5.68;;;2.97;;
62071;SDS011;48031;48.542;13.232;2023-06-22T07:39:24;7.18;;;3.45;;
62071;SDS011;48031;48.542;13.232;2023-06-22T07:43:27;6.93;;;2.90;;
62071;SDS011;48031;48.542;13.232;2023-06-22T07:47:31;4.82;;;3.10;;
62071;SDS011;48031;48.542;13.232;2023-06-22T07:51:37;4.25;;;2.70;;
62071;SDS011;48031;48.542;13.232;2023-06-22T07:55:38;4.35;;;2.90;;
62071;SDS011;48031;48.542;13.232;2023-06-22T07:59:40;4.55;;;2.90;;
62071;SDS011;48031;48.542;13.232;2023-06-22T08:03:42;4.22;;;2.88;;
62071;SDS011;48031;48.542;13.232;2023-06-22T08:07:44;4.60;;;2.95;;
62071;SDS011;48031;48.542;13.232;2023-06-22T08:11:49;4.40;;;3.00;;
62071;SDS011;48031;48.542;13.232;2023-06-22T08:15:50;6.00;;;2.88;;
62071;SDS011;48031;48.542;13.232;2023-06-22T08:19:53;5.45;;;3.22;;
62071;SDS011;48031;48.542;13.232;2023-06-22T08:23:55;4.20;;;2.92;;
62071;SDS011;48031;48.542;13.232;2023-06-22T08:27:56;5.05;;;2.97;;
62071;SDS011;48031;48.542;13.232;2023-06-22T08:31:58;4.40;;;3.10;;
62071;SDS011;48031;48.542;13.232;2023-06-22T08:36:00;6.32;;;3.00;;
62071;SDS011;48031;48.542;13.232;2023-06-22T08:40:03;7.90;;;3.25;;
62071;SDS011;48031;48.542;13.232;2023-06-22T08:44:07;5.40;;;3.10;;
62071;SDS011;48031;48.542;13.232;2023-06-22T08:48:08;5.75;;;2.88;;
62071;SDS011;48031;48.542;13.232;2023-06-22T08:52:10;4.90;;;2.85;;
62071;SDS011;48031;48.542;13.232;2023-06-22T08:56:12;10.70;;;3.30;;
62071;SDS011;48031;48.542;13.232;2023-06-22T09:00:14;3.20;;;2.80;;
62071;SDS011;48031;48.542;13.232;2023-06-22T09:04:18;3.80;;;2.78;;
62071;SDS011;48031;48.542;13.232;2023-06-22T09:08:20;3.80;;;3.03;;
62071;SDS011;48031;48.542;13.232;2023-06-22T09:12:22;4.38;;;2.45;;
62071;SDS011;48031;48.542;13.232;2023-06-22T09:16:28;5.35;;;3.17;;
62071;SDS011;48031;48.542;13.232;2023-06-22T09:20:30;5.72;;;2.90;;
62071;SDS011;48031;48.542;13.232;2023-06-22T09:24:33;4.10;;;3.00;;
62071;SDS011;48031;48.542;13.232;2023-06-22T09:28:35;5.13;;;2.80;;
62071;SDS011;48031;48.542;13.232;2023-06-22T09:32:36;4.15;;;3.20;;
62071;SDS011;48031;48.542;13.232;2023-06-22T09:36:38;4.53;;;2.50;;
62071;SDS011;48031;48.542;13.232;2023-06-22T09:40:41;5.43;;;2.90;;
62071;SDS011;48031;48.542;13.232;2023-06-22T09:44:43;6.20;;;2.85;;
62071;SDS011;48031;48.542;13.232;2023-06-22T09:48:44;6.53;;;2.85;;
62071;SDS011;48031;48.542;13.232;2023-06-22T09:52:46;6.35;;;2.85;;
62071;SDS011;48031;48.542;13.232;2023-06-22T09:56:52;4.57;;;3.00;;
62071;SDS011;48031;48.542;13.232;2023-06-22T10:00:53;5.50;;;2.75;;
62071;SDS011;48031;48.542;13.232;2023-06-22T10:04:55;4.22;;;3.03;;
62071;SDS011;48031;48.542;13.232;2023-06-22T10:08:58;6.63;;;3.05;;
62071;SDS011;48031;48.542;13.232;2023-06-22T10:13:02;5.40;;;2.88;;
62071;SDS011;48031;48.542;13.232;2023-06-22T10:17:11;5.60;;;2.88;;
62071;SDS011;48031;48.542;13.232;2023-06-22T10:21:13;5.97;;;2.60;;
62071;SDS011;48031;48.542;13.232;2023-06-22T10:25:14;7.40;;;2.67;;
62071;SDS011;48031;48.542;13.232;2023-06-22T10:29:16;5.32;;;3.10;;
62071;SDS011;48031;48.542;13.232;2023-06-22T10:33:18;5.07;;;2.78;;
62071;SDS011;48031;48.542;13.232;2023-06-22T10:37:20;4.57;;;2.40;;
62071;SDS011;48031;48.542;13.232;2023-06-22T10:41:22;6.13;;;2.80;;
62071;SDS011;48031;48.542;13.232;2023-06-22T10:45:24;4.60;;;2.78;;
62071;SDS011;48031;48.542;13.232;2023-06-22T10:49:33;4.60;;;2.90;;
62071;SDS011;48031;48.542;13.232;2023-06-22T10:53:35;6.10;;;2.85;;
62071;SDS011;48031;48.542;13.232;2023-06-22T10:57:37;5.65;;;3.10;;
62071;SDS011;48031;48.542;13.232;2023-06-22T11:01:43;8.52;;;2.75;;
62071;SDS011;48031;48.542;13.232;2023-06-22T11:05:45;5.13;;;2.63;;
62071;SDS011;48031;48.542;13.232;2023-06-22T11:09:47;6.53;;;3.00;;
62071;SDS011;48031;48.542;13.232;2023-06-22T11:13:49;5.80;;;2.70;;
62071;SDS011;48031;48.542;13.232;2023-06-22T11:17:51;5.95;;;2.90;;
62071;SDS011;48031;48.542;13.232;2023-06-22T11:21:53;5.63;;;3.30;;
62071;SDS011;48031;48.542;13.232;2023-06-22T11:25:55;5.18;;;3.10;;
62071;SDS011;48031;48.542;13.232;2023-06-22T11:29:56;5.95;;;3.20;;
62071;SDS011;48031;48.542;13.232;2023-06-22T11:33:58;4.38;;;2.85;;
62071;SDS011;48031;48.542;13.232;2023-06-22T11:38:00;5.95;;;2.90;;
62071;SDS011;48031;48.542;13.232;2023-06-22T11:42:02;5.10;;;2.50;;
62071;SDS011;48031;48.542;13.232;2023-06-22T11:46:04;7.38;;;3.13;;
62071;SDS011;48031;48.542;13.232;2023-06-22T11:50:06;7.88;;;3.13;;
62071;SDS011;48031;48.542;13.232;2023-06-22T11:54:08;6.47;;;2.88;;
62071;SDS011;48031;48.542;13.232;2023-06-22T11:58:10;7.43;;;3.03;;
62071;SDS011;48031;48.542;13.232;2023-06-22T12:02:13;6.70;;;3.17;;
62071;SDS011;48031;48.542;13.232;2023-06-22T12:06:14;9.57;;;2.90;;
62071;SDS011;48031;48.542;13.232;2023-06-22T12:10:17;7.72;;;2.60;;
62071;SDS011;48031;48.542;13.232;2023-06-22T12:14:19;10.45;;;3.20;;
62071;SDS011;48031;48.542;13.232;2023-06-22T12:18:20;3.90;;;2.65;;
62071;SDS011;48031;48.542;13.232;2023-06-22T12:22:23;4.60;;;2.95;;
62071;SDS011;48031;48.542;13.232;2023-06-22T12:26:24;7.63;;;3.60;;
62071;SDS011;48031;48.542;13.232;2023-06-22T12:30:26;5.15;;;3.15;;
62071;SDS011;48031;48.542;13.232;2023-06-22T12:34:29;4.78;;;2.80;;
62071;SDS011;48031;48.542;13.232;2023-06-22T12:38:30;4.82;;;2.83;;
62071;SDS011;48031;48.542;13.232;2023-06-22T12:42:32;4.93;;;3.03;;
62071;SDS011;48031;48.542;13.232;2023-06-22T12:46:34;5.75;;;2.88;;
62071;SDS011;48031;48.542;13.232;2023-06-22T12:54:40;6.78;;;2.47;;
62071;SDS011;48031;48.542;13.232;2023-06-22T12:58:55;8.95;;;3.47;;
62071;SDS011;48031;48.542;13.232;2023-06-22T13:02:57;5.88;;;3.30;;
62071;SDS011;48031;48.542;13.232;2023-06-22T13:06:59;6.28;;;3.33;;
62071;SDS011;48031;48.542;13.232;2023-06-22T13:11:01;7.95;;;2.78;;
62071;SDS011;48031;48.542;13.232;2023-06-22T13:15:03;6.25;;;3.00;;
62071;SDS011;48031;48.542;13.232;2023-06-22T13:19:05;4.35;;;2.83;;
62071;SDS011;48031;48.542;13.232;2023-06-22T13:23:09;5.85;;;2.95;;
62071;SDS011;48031;48.542;13.232;2023-06-22T13:27:10;9.50;;;3.15;;
62071;SDS011;48031;48.542;13.232;2023-06-22T13:31:12;6.75;;;3.20;;
62071;SDS011;48031;48.542;13.232;2023-06-22T13:35:14;7.40;;;2.88;;
62071;SDS011;48031;48.542;13.232;2023-06-22T13:39:16;5.53;;;3.20;;
62071;SDS011;48031;48.542;13.232;2023-06-22T13:43:18;8.32;;;3.30;;
62071;SDS011;48031;48.542;13.232;2023-06-22T13:47:19;8.10;;;3.40;;
62071;SDS011;48031;48.542;13.232;2023-06-22T13:51:21;9.32;;;3.10;;
62071;SDS011;48031;48.542;13.232;2023-06-22T13:55:23;6.95;;;3.20;;
62071;SDS011;48031;48.542;13.232;2023-06-22T13:59:25;6.85;;;3.50;;
62071;SDS011;48031;48.542;13.232;2023-06-22T14:03:29;7.75;;;3.45;;
62071;SDS011;48031;48.542;13.232;2023-06-22T14:07:31;7.43;;;3.50;;
62071;SDS011;48031;48.542;13.232;2023-06-22T14:11:33;7.18;;;3.60;;
62071;SDS011;48031;48.542;13.232;2023-06-22T14:15:35;7.97;;;3.90;;
62071;SDS011;48031;48.542;13.232;2023-06-22T14:19:36;6.50;;;3.50;;
62071;SDS011;48031;48.542;13.232;2023-06-22T14:23:38;6.28;;;3.42;;
62071;SDS011;48031;48.542;13.232;2023-06-22T14:27:40;10.95;;;3.53;;
62071;SDS011;48031;48.542;13.232;2023-06-22T14:31:44;8.07;;;3.20;;
62071;SDS011;48031;48.542;13.232;2023-06-22T14:35:47;7.03;;;3.60;;
62071;SDS011;48031;48.542;13.232;2023-06-22T14:39:49;6.60;;;3.70;;
62071;SDS011;48031;48.542;13.232;2023-06-22T14:43:51;6.38;;;3.35;;
62071;SDS011;48031;48.542;13.232;2023-06-22T14:47:53;6.72;;;2.90;;
62071;SDS011;48031;48.542;13.232;2023-06-22T14:53:27;10.38;;;3.78;;
62071;SDS011;48031;48.542;13.232;2023-06-22T14:57:29;10.45;;;3.70;;
62071;SDS011;48031;48.542;13.232;2023-06-22T15:01:31;9.10;;;3.30;;
62071;SDS011;48031;48.542;13.232;2023-06-22T15:05:33;10.25;;;3.47;;
62071;SDS011;48031;48.542;13.232;2023-06-22T15:09:35;12.20;;;3.60;;
62071;SDS011;48031;48.542;13.232;2023-06-22T15:13:40;11.15;;;3.92;;
62071;SDS011;48031;48.542;13.232;2023-06-22T15:17:43;9.55;;;3.80;;
62071;SDS011;48031;48.542;13.232;2023-06-22T15:21:45;9.48;;;4.05;;
62071;SDS011;48031;48.542;13.232;2023-06-22T15:25:47;8.25;;;3.45;;
62071;SDS011;48031;48.542;13.232;2023-06-22T15:29:49;12.30;;;3.50;;
62071;SDS011;48031;48.542;13.232;2023-06-22T15:33:50;10.57;;;3.90;;
62071;SDS011;48031;48.542;13.232;2023-06-22T15:37:52;10.48;;;3.75;;
62071;SDS011;48031;48.542;13.232;2023-06-22T15:41:54;10.65;;;3.95;;
62071;SDS011;48031;48.542;13.232;2023-06-22T15:45:56;7.57;;;3.67;;
62071;SDS011;48031;48.542;13.232;2023-06-22T15:49:58;6.10;;;3.78;;
62071;SDS011;48031;48.542;13.232;2023-06-22T15:54:00;8.48;;;3.80;;
62071;SDS011;48031;48.542;13.232;2023-06-22T15:58:02;10.73;;;3.70;;
62071;SDS011;48031;48.542;13.232;2023-06-22T16:02:03;9.93;;;4.13;;
62071;SDS011;48031;48.542;13.232;2023-06-22T16:06:06;13.05;;;4.80;;
62071;SDS011;48031;48.542;13.232;2023-06-22T16:10:08;11.13;;;3.53;;
62071;SDS011;48031;48.542;13.232;2023-06-22T16:14:10;10.98;;;4.10;;
62071;SDS011;48031;48.542;13.232;2023-06-22T16:18:12;9.95;;;3.90;;
62071;SDS011;48031;48.542;13.232;2023-06-22T16:22:14;8.48;;;4.00;;
62071;SDS011;48031;48.542;13.232;2023-06-22T16:26:15;11.68;;;4.35;;
62071;SDS011;48031;48.542;13.232;2023-06-22T16:30:17;11.00;;;4.00;;
62071;SDS011;48031;48.542;13.232;2023-06-22T16:34:19;10.65;;;4.45;;
62071;SDS011;48031;48.542;13.232;2023-06-22T16:38:21;9.00;;;4.32;;
62071;SDS011;48031;48.542;13.232;2023-06-22T16:42:23;11.55;;;4.68;;
62071;SDS011;48031;48.542;13.232;2023-06-22T16:46:25;8.23;;;4.13;;
62071;SDS011;48031;48.542;13.232;2023-06-22T16:50:27;8.35;;;4.20;;
62071;SDS011;48031;48.542;13.232;2023-06-22T16:54:29;8.43;;;4.13;;
62071;SDS011;48031;48.542;13.232;2023-06-22T16:58:31;10.70;;;4.50;;
62071;SDS011;48031;48.542;13.232;2023-06-22T17:02:33;9.55;;;3.70;;
62071;SDS011;48031;48.542;13.232;2023-06-22T17:06:43;9.77;;;3.80;;
62071;SDS011;48031;48.542;13.232;2023-06-22T17:10:52;9.15;;;4.13;;
62071;SDS011;48031;48.542;13.232;2023-06-22T17:14:54;7.43;;;4.40;;
62071;SDS011;48031;48.542;13.232;2023-06-22T17:18:56;11.40;;;3.95;;
62071;SDS011;48031;48.542;13.232;2023-06-22T17:22:59;6.45;;;4.18;;
62071;SDS011;48031;48.542;13.232;2023-06-22T17:27:01;7.90;;;4.18;;
62071;SDS011;48031;48.542;13.232;2023-06-22T17:31:09;8.35;;;4.18;;
62071;SDS011;48031;48.542;13.232;2023-06-22T17:35:11;10.15;;;3.70;;
62071;SDS011;48031;48.542;13.232;2023-06-22T17:39:14;7.32;;;3.90;;
62071;SDS011;48031;48.542;13.232;2023-06-22T17:43:20;10.90;;;4.20;;
62071;SDS011;48031;48.542;13.232;2023-06-22T17:47:23;11.65;;;4.75;;
62071;SDS011;48031;48.542;13.232;2023-06-22T17:51:28;17.20;;;5.80;;
62071;SDS011;48031;48.542;13.232;2023-06-22T17:55:30;14.13;;;6.63;;
62071;SDS011;48031;48.542;13.232;2023-06-22T17:59:34;11.65;;;5.65;;
62071;SDS011;48031;48.542;13.232;2023-06-22T18:03:37;16.25;;;6.10;;
62071;SDS011;48031;48.542;13.232;2023-06-22T18:07:40;9.82;;;5.72;;
62071;SDS011;48031;48.542;13.232;2023-06-22T18:11:43;12.60;;;7.88;;
62071;SDS011;48031;48.542;13.232;2023-06-22T18:15:49;12.63;;;7.65;;
62071;SDS011;48031;48.542;13.232;2023-06-22T18:19:54;10.98;;;6.28;;
62071;SDS011;48031;48.542;13.232;2023-06-22T18:23:58;15.00;;;7.45;;
62071;SDS011;48031;48.542;13.232;2023-06-22T18:28:00;11.23;;;7.40;;
62071;SDS011;48031;48.542;13.232;2023-06-22T18:32:03;10.52;;;6.30;;
62071;SDS011;48031;48.542;13.232;2023-06-22T18:36:05;11.90;;;6.63;;
62071;SDS011;48031;48.542;13.232;2023-06-22T18:40:08;11.40;;;6.43;;
62071;SDS011;48031;48.542;13.232;2023-06-22T18:44:18;10.23;;;6.82;;
62071;SDS011;48031;48.542;13.232;2023-06-22T18:48:23;12.25;;;6.50;;
62071;SDS011;48031;48.542;13.232;2023-06-22T18:52:26;10.25;;;6.75;;
62071;SDS011;48031;48.542;13.232;2023-06-22T18:56:28;14.20;;;7.32;;
62071;SDS011;48031;48.542;13.232;2023-06-22T19:00:30;9.77;;;6.28;;
62071;SDS011;48031;48.542;13.232;2023-06-22T19:04:32;12.52;;;6.63;;
62071;SDS011;48031;48.542;13.232;2023-06-22T19:09:11;11.80;;;6.63;;
62071;SDS011;48031;48.542;13.232;2023-06-22T19:17:24;9.88;;;6.60;;
62071;SDS011;48031;48.542;13.232;2023-06-22T19:21:26;12.85;;;7.07;;
62071;SDS011;48031;48.542;13.232;2023-06-22T19:25:29;12.57;;;7.40;;
62071;SDS011;48031;48.542;13.232;2023-06-22T19:29:37;12.23;;;6.43;;
62071;SDS011;48031;48.542;13.232;2023-06-22T19:33:39;12.70;;;7.20;;
62071;SDS011;48031;48.542;13.232;2023-06-22T19:37:41;10.60;;;6.45;;
62071;SDS011;48031;48.542;13.232;2023-06-22T19:41:44;14.98;;;6.80;;
62071;SDS011;48031;48.542;13.232;2023-06-22T19:45:47;11.15;;;6.28;;
62071;SDS011;48031;48.542;13.232;2023-06-22T19:49:57;11.27;;;5.90;;
62071;SDS011;48031;48.542;13.232;2023-06-22T19:54:07;11.93;;;6.32;;
62071;SDS011;48031;48.542;13.232;2023-06-22T19:58:10;17.43;;;4.13;;
62071;SDS011;48031;48.542;13.232;2023-06-22T20:02:13;16.25;;;4.35;;
62071;SDS011;48031;48.542;13.232;2023-06-22T20:06:16;10.95;;;3.15;;
62071;SDS011;48031;48.542;13.232;2023-06-22T20:10:39;12.93;;;3.38;;
62071;SDS011;48031;48.542;13.232;2023-06-22T20:15:17;4.53;;;2.20;;
62071;SDS011;48031;48.542;13.232;2023-06-22T20:19:41;5.97;;;1.80;;
62071;SDS011;48031;48.542;13.232;2023-06-22T20:24:05;5.00;;;1.75;;
62071;SDS011;48031;48.542;13.232;2023-06-22T20:28:28;8.80;;;2.25;;
62071;SDS011;48031;48.542;13.232;2023-06-22T20:32:51;8.07;;;2.25;;
62071;SDS011;48031;48.542;13.232;2023-06-22T20:37:17;6.43;;;2.57;;
62071;SDS011;48031;48.542;13.232;2023-06-22T20:41:40;4.65;;;1.92;;
62071;SDS011;48031;48.542;13.232;2023-06-22T20:46:02;7.22;;;2.35;;
62071;SDS011;48031;48.542;13.232;2023-06-22T20:50:25;9.05;;;2.55;;
62071;SDS011;48031;48.542;13.232;2023-06-22T20:54:31;10.75;;;2.47;;
62071;SDS011;48031;48.542;13.232;2023-06-22T20:58:35;6.15;;;2.22;;
62071;SDS011;48031;48.542;13.232;2023-06-22T21:02:37;9.68;;;2.13;;
62071;SDS011;48031;48.542;13.232;2023-06-22T21:06:39;5.65;;;1.85;;
62071;SDS011;48031;48.542;13.232;2023-06-22T21:10:41;5.32;;;1.88;;
62071;SDS011;48031;48.542;13.232;2023-06-22T21:14:43;4.57;;;1.95;;
62071;SDS011;48031;48.542;13.232;2023-06-22T21:18:45;5.97;;;2.10;;
62071;SDS011;48031;48.542;13.232;2023-06-22T21:22:47;6.53;;;1.98;;
62071;SDS011;48031;48.542;13.232;2023-06-22T21:26:49;5.97;;;2.20;;
62071;SDS011;48031;48.542;13.232;2023-06-22T21:30:51;4.20;;;1.60;;
62071;SDS011;48031;48.542;13.232;2023-06-22T21:34:53;12.82;;;2.63;;
62071;SDS011;48031;48.542;13.232;2023-06-22T21:38:55;10.48;;;2.80;;
62071;SDS011;48031;48.542;13.232;2023-06-22T21:42:57;6.57;;;2.55;;
62071;SDS011;48031;48.542;13.232;2023-06-22T21:47:03;7.65;;;2.30;;
62071;SDS011;48031;48.542;13.232;2023-06-22T21:51:05;8.00;;;2.70;;
62071;SDS011;48031;48.542;13.232;2023-06-22T21:55:07;9.65;;;2.88;;
62071;SDS011;48031;48.542;13.232;2023-06-22T21:59:09;11.55;;;3.50;;
62071;SDS011;48031;48.542;13.232;2023-06-22T22:03:11;7.65;;;3.72;;
62071;SDS011;48031;48.542;13.232;2023-06-22T22:07:13;6.60;;;2.88;;
62071;SDS011;48031;48.542;13.232;2023-06-22T22:11:15;13.10;;;4.80;;
62071;SDS011;48031;48.542;13.232;2023-06-22T22:15:16;10.35;;;3.60;;
62071;SDS011;48031;48.542;13.232;2023-06-22T22:19:18;8.07;;;3.30;;
62071;SDS011;48031;48.542;13.232;2023-06-22T22:23:21;8.98;;;3.40;;
62071;SDS011;48031;48.542;13.232;2023-06-22T22:27:24;5.47;;;3.58;;
62071;SDS011;48031;48.542;13.232;2023-06-22T22:31:25;10.23;;;3.80;;
62071;SDS011;48031;48.542;13.232;2023-06-22T22:35:27;10.63;;;4.15;;
62071;SDS011;48031;48.542;13.232;2023-06-22T22:43:33;10.73;;;4.72;;
62071;SDS011;48031;48.542;13.232;2023-06-22T22:47:35;10.77;;;4.18;;
62071;SDS011;48031;48.542;13.232;2023-06-22T22:51:37;8.90;;;3.85;;
62071;SDS011;48031;48.542;13.232;2023-06-22T22:55:39;7.90;;;3.22;;
62071;SDS011;48031;48.542;13.232;2023-06-22T22:59:41;5.07;;;2.92;;
62071;SDS011;48031;48.542;13.232;2023-06-22T23:03:43;10.50;;;2.85;;
62071;SDS011;48031;48.542;13.232;2023-06-22T23:07:47;5.03;;;2.50;;
62071;SDS011;48031;48.542;13.232;2023-06-22T23:11:48;5.63;;;2.40;;
62071;SDS011;48031;48.542;13.232;2023-06-22T23:15:50;4.95;;;2.30;;
62071;SDS011;48031;48.542;13.232;2023-06-22T23:19:52;6.20;;;2.38;;
62071;SDS011;48031;48.542;13.232;2023-06-22T23:23:55;7.35;;;2.08;;
62071;SDS011;48031;48.542;13.232;2023-06-22T23:27:57;5.05;;;2.38;;
62071;SDS011;48031;48.542;13.232;2023-06-22T23:31:59;4.68;;;1.90;;
62071;SDS011;48031;48.542;13.232;2023-06-22T23:36:01;5.72;;;2.33;;
62071;SDS011;48031;48.542;13.232;2023-06-22T23:40:03;4.18;;;2.63;;
62071;SDS011;48031;48.542;13.232;2023-06-22T23:44:08;3.88;;;2.10;;
62071;SDS011;48031;48.542;13.232;2023-06-22T23:48:10;10.60;;;2.30;;
62071;SDS011;48031;48.542;13.232;2023-06-22T23:52:12;6.93;;;2.22;;
62071;SDS011;48031;48.542;13.232;2023-06-22T23:56:14;9.50;;;2.50;;
